Time,TemperatureF,DewpointF,PressureIn,WindDirection,WindDirectionDegrees,WindSpeedMPH,WindSpeedGustMPH,Humidity,HourlyPrecipIn,Conditions,Clouds,dailyrainin,SoftwareType,DateUTC
2013-04-07 00:07:00,41.1,29.0,30.22,SW,218,2.0,3.0,62,0.00,,,0.00,weatherlink.com 1.10,2013-04-07 04:07:00,
2013-04-07 00:23:00,41.0,29.0,30.22,SSE,156,3.0,4.0,62,0.00,,,0.00,weatherlink.com 1.10,2013-04-07 04:23:00,
2013-04-07 00:38:00,40.9,29.0,30.22,SSE,148,2.0,4.0,63,0.00,,,0.00,weatherlink.com 1.10,2013-04-07 04:38:00,
2013-04-07 00:53:00,40.8,29.0,30.22,ESE,115,2.0,3.0,64,0.00,,,0.00,weatherlink.com 1.10,2013-04-07 04:53:00,
2013-04-07 01:08:00,40.6,29.0,30.22,SSE,168,2.0,4.0,63,0.00,,,0.00,weatherlink.com 1.10,2013-04-07 05:08:00,
2013-04-07 01:23:00,40.4,29.0,30.22,South,188,5.0,5.0,63,0.00,,,0.00,weatherlink.com 1.10,2013-04-07 05:23:00,
2013-04-07 01:38:00,40.3,29.0,30.22,South,184,1.0,6.0,64,0.00,,,0.00,weatherlink.com 1.10,2013-04-07 05:38:00,
2013-04-07 01:53:00,40.3,28.0,30.22,SW,217,3.0,7.0,63,0.00,,,0.00,weatherlink.com 1.10,2013-04-07 05:53:00,
2013-04-07 04:03:00,39.6,30.0,30.20,SE,142,1.0,4.0,69,0.00,,,0.00,weatherlink.com 1.10,2013-04-07 08:03:00,
2013-04-07 04:39:00,39.6,30.0,30.20,SSE,153,2.0,7.0,69,0.00,,,0.00,weatherlink.com 1.10,2013-04-07 08:39:00,
2013-04-07 04:54:00,39.8,30.0,30.20,South,184,3.0,5.0,69,0.00,,,0.00,weatherlink.com 1.10,2013-04-07 08:54:00,
2013-04-07 05:09:00,39.9,30.0,30.20,SSE,155,3.0,7.0,68,0.00,,,0.00,weatherlink.com 1.10,2013-04-07 09:09:00,
2013-04-07 05:24:00,40.1,30.0,30.20,SSE,150,1.0,5.0,67,0.00,,,0.00,weatherlink.com 1.10,2013-04-07 09:24:00,
2013-04-07 05:54:00,40.8,28.0,30.20,SSE,165,4.0,12.0,60,0.00,,,0.00,weatherlink.com 1.10,2013-04-07 09:54:00,
2013-04-07 06:09:00,41.1,28.0,30.20,SE,133,3.0,6.0,60,0.00,,,0.00,weatherlink.com 1.10,2013-04-07 10:09:00,
2013-04-07 06:24:00,41.4,27.0,30.20,SSE,152,3.0,6.0,56,0.00,,,0.00,weatherlink.com 1.10,2013-04-07 10:24:00,
2013-04-07 06:39:00,41.7,25.0,30.20,SSE,158,2.0,6.0,52,0.00,,,0.00,weatherlink.com 1.10,2013-04-07 10:39:00,
2013-04-07 06:54:00,41.9,25.0,30.20,SE,129,2.0,7.0,51,0.00,,,0.00,weatherlink.com 1.10,2013-04-07 10:54:00,
2013-04-07 07:09:00,42.2,25.0,30.21,SSE,166,3.0,5.0,50,0.00,,,0.00,weatherlink.com 1.10,2013-04-07 11:09:00,
2013-04-07 07:24:00,42.6,24.0,30.20,SSE,162,2.0,5.0,49,0.00,,,0.00,weatherlink.com 1.10,2013-04-07 11:24:00,
2013-04-07 07:39:00,43.0,24.0,30.20,East,88,0.0,6.0,48,0.00,,,0.00,weatherlink.com 1.10,2013-04-07 11:39:00,
2013-04-07 07:54:00,43.4,24.0,30.20,SSW,205,4.0,6.0,47,0.00,,,0.00,weatherlink.com 1.10,2013-04-07 11:54:00,
2013-04-07 08:09:00,44.1,24.0,30.20,South,190,1.0,7.0,46,0.00,,,0.00,weatherlink.com 1.10,2013-04-07 12:09:00,
2013-04-07 08:25:00,44.8,24.0,30.20,South,183,4.0,7.0,44,0.00,,,0.00,weatherlink.com 1.10,2013-04-07 12:25:00,
2013-04-07 08:39:00,45.3,25.0,30.20,SSE,149,1.0,8.0,45,0.00,,,0.00,weatherlink.com 1.10,2013-04-07 12:39:00,
2013-04-07 08:55:00,46.1,26.0,30.19,South,177,4.0,9.0,45,0.00,,,0.00,weatherlink.com 1.10,2013-04-07 12:55:00,
2013-04-07 09:10:00,46.4,26.0,30.19,West,262,1.0,6.0,46,0.00,,,0.00,weatherlink.com 1.10,2013-04-07 13:10:00,
2013-04-07 09:25:00,47.6,28.0,30.18,ESE,115,6.0,9.0,47,0.00,,,0.00,weatherlink.com 1.10,2013-04-07 13:25:00,
2013-04-07 09:40:00,47.3,30.0,30.18,SW,224,6.0,11.0,51,0.00,,,0.00,weatherlink.com 1.10,2013-04-07 13:40:00,
2013-04-07 09:55:00,47.0,31.0,30.18,SE,146,3.0,9.0,54,0.00,,,0.00,weatherlink.com 1.10,2013-04-07 13:55:00,
2013-04-07 10:10:00,47.3,32.0,30.18,South,173,2.0,8.0,55,0.00,,,0.00,weatherlink.com 1.10,2013-04-07 14:10:00,
2013-04-07 10:25:00,48.7,32.0,30.17,SW,233,7.0,11.0,53,0.00,,,0.00,weatherlink.com 1.10,2013-04-07 14:25:00,
2013-04-07 10:40:00,49.2,33.0,30.16,SSE,165,4.0,13.0,54,0.00,,,0.00,weatherlink.com 1.10,2013-04-07 14:40:00,
2013-04-07 10:55:00,49.9,33.0,30.16,WSW,256,3.0,10.0,53,0.00,,,0.00,weatherlink.com 1.10,2013-04-07 14:55:00,
2013-04-07 11:10:00,50.5,33.0,30.16,SE,125,4.0,9.0,52,0.00,,,0.00,weatherlink.com 1.10,2013-04-07 15:10:00,
2013-04-07 11:25:00,51.1,34.0,30.16,SW,221,3.0,10.0,52,0.00,,,0.00,weatherlink.com 1.10,2013-04-07 15:25:00,
2013-04-07 11:40:00,51.9,35.0,30.14,SE,126,3.0,9.0,52,0.00,,,0.00,weatherlink.com 1.10,2013-04-07 15:40:00,
2013-04-07 11:55:00,52.1,35.0,30.14,SE,139,3.0,8.0,53,0.00,,,0.00,weatherlink.com 1.10,2013-04-07 15:55:00,
2013-04-07 12:10:00,52.3,36.0,30.12,SE,145,1.0,15.0,54,0.00,,,0.00,weatherlink.com 1.10,2013-04-07 16:10:00,
2013-04-07 12:25:00,52.6,37.0,30.11,ESE,115,5.0,10.0,55,0.00,,,0.00,weatherlink.com 1.10,2013-04-07 16:25:00,
2013-04-07 12:40:00,52.8,36.0,30.10,SE,131,4.0,13.0,54,0.00,,,0.00,weatherlink.com 1.10,2013-04-07 16:40:00,
2013-04-07 12:55:00,53.1,37.0,30.09,SSW,203,4.0,12.0,55,0.00,,,0.00,weatherlink.com 1.10,2013-04-07 16:55:00,
2013-04-07 13:10:00,53.6,38.0,30.07,SE,139,4.0,9.0,55,0.00,,,0.00,weatherlink.com 1.10,2013-04-07 17:10:00,
2013-04-07 13:25:00,53.1,38.0,30.07,SE,136,6.0,12.0,56,0.00,,,0.00,weatherlink.com 1.10,2013-04-07 17:25:00,
2013-04-07 13:40:00,53.4,38.0,30.06,WSW,245,3.0,9.0,57,0.00,,,0.00,weatherlink.com 1.10,2013-04-07 17:40:00,
2013-04-07 13:55:00,53.3,38.0,30.06,SE,143,8.0,12.0,57,0.00,,,0.00,weatherlink.com 1.10,2013-04-07 17:55:00,
2013-04-07 14:10:00,52.8,38.0,30.05,SE,141,3.0,12.0,58,0.00,,,0.00,weatherlink.com 1.10,2013-04-07 18:10:00,
2013-04-07 14:25:00,52.1,39.0,30.04,ESE,118,3.0,11.0,61,0.00,,,0.00,weatherlink.com 1.10,2013-04-07 18:25:00,
2013-04-07 14:40:00,53.0,39.0,30.03,ESE,120,3.0,11.0,60,0.00,,,0.00,weatherlink.com 1.10,2013-04-07 18:40:00,
2013-04-07 14:55:00,53.0,39.0,30.02,SSE,163,2.0,14.0,60,0.00,,,0.00,weatherlink.com 1.10,2013-04-07 18:55:00,
2013-04-07 15:10:00,52.1,39.0,30.02,SE,129,8.0,10.0,62,0.00,,,0.00,weatherlink.com 1.10,2013-04-07 19:10:00,
2013-04-07 15:26:00,51.5,39.0,30.00,South,176,6.0,11.0,63,0.00,,,0.00,weatherlink.com 1.10,2013-04-07 19:26:00,
2013-04-07 15:41:00,51.0,40.0,29.99,SE,146,4.0,14.0,65,0.00,,,0.00,weatherlink.com 1.10,2013-04-07 19:41:00,
2013-04-07 15:56:00,50.6,40.0,29.98,SE,136,5.0,14.0,67,0.00,,,0.00,weatherlink.com 1.10,2013-04-07 19:56:00,
2013-04-07 16:11:00,50.2,40.0,29.98,South,170,3.0,13.0,69,0.00,,,0.00,weatherlink.com 1.10,2013-04-07 20:11:00,
2013-04-07 16:26:00,50.6,41.0,29.97,South,185,3.0,11.0,69,0.00,,,0.00,weatherlink.com 1.10,2013-04-07 20:26:00,
2013-04-07 16:41:00,51.3,41.0,29.95,SSE,160,7.0,15.0,68,0.00,,,0.00,weatherlink.com 1.10,2013-04-07 20:41:00,
2013-04-07 16:56:00,51.7,41.0,29.96,ESE,121,9.0,16.0,68,0.00,,,0.00,weatherlink.com 1.10,2013-04-07 20:56:00,
2013-04-07 17:11:00,51.8,42.0,29.96,ESE,123,2.0,14.0,69,0.00,,,0.00,weatherlink.com 1.10,2013-04-07 21:11:00,
2013-04-07 18:11:00,49.9,42.0,29.93,ESE,113,7.0,11.0,74,0.00,,,0.00,weatherlink.com 1.10,2013-04-07 22:11:00,
2013-04-07 18:26:00,49.7,42.0,29.94,SSE,167,2.0,12.0,75,0.00,,,0.00,weatherlink.com 1.10,2013-04-07 22:26:00,
2013-04-07 18:41:00,49.8,42.0,29.94,SE,133,2.0,6.0,75,0.00,,,0.00,weatherlink.com 1.10,2013-04-07 22:41:00,
2013-04-07 18:56:00,50.0,42.0,29.94,SE,144,3.0,7.0,75,0.00,,,0.00,weatherlink.com 1.10,2013-04-07 22:56:00,
2013-04-07 19:11:00,50.0,43.0,29.95,SE,143,5.0,10.0,76,0.00,,,0.00,weatherlink.com 1.10,2013-04-07 23:11:00,
2013-04-07 19:26:00,51.0,43.0,29.94,SE,132,2.0,8.0,75,0.00,,,0.00,weatherlink.com 1.10,2013-04-07 23:26:00,
2013-04-07 19:41:00,52.5,43.0,29.94,SSE,151,2.0,7.0,71,0.00,,,0.00,weatherlink.com 1.10,2013-04-07 23:41:00,
2013-04-07 19:56:00,51.9,43.0,29.95,South,170,2.0,5.0,73,0.00,,,0.00,weatherlink.com 1.10,2013-04-07 23:56:00,
2013-04-07 20:11:00,51.7,43.0,29.96,SE,139,2.0,6.0,73,0.00,,,0.00,weatherlink.com 1.10,2013-04-08 00:11:00,
2013-04-07 20:41:00,52.0,44.0,29.96,SSE,151,2.0,5.0,73,0.00,,,0.00,weatherlink.com 1.10,2013-04-08 00:41:00,
2013-04-07 20:56:00,51.7,43.0,29.95,SW,226,2.0,5.0,73,0.00,,,0.00,weatherlink.com 1.10,2013-04-08 00:56:00,
2013-04-07 21:11:00,51.6,43.0,29.95,SW,226,3.0,6.0,73,0.00,,,0.00,weatherlink.com 1.10,2013-04-08 01:11:00,
2013-04-07 21:41:00,52.2,43.0,29.95,SSE,152,2.0,5.0,72,0.00,,,0.00,weatherlink.com 1.10,2013-04-08 01:41:00,
2013-04-07 21:56:00,50.8,43.0,29.96,SSE,159,2.0,4.0,75,0.00,,,0.00,weatherlink.com 1.10,2013-04-08 01:56:00,
2013-04-07 22:11:00,50.3,43.0,29.95,SE,129,3.0,4.0,76,0.00,,,0.00,weatherlink.com 1.10,2013-04-08 02:11:00,
2013-04-07 23:11:00,50.3,43.0,29.94,SE,139,2.0,5.0,75,0.00,,,0.00,weatherlink.com 1.10,2013-04-08 03:11:00,
2013-04-07 23:26:00,50.4,43.0,29.93,West,271,2.0,4.0,75,0.00,,,0.00,weatherlink.com 1.10,2013-04-08 03:26:00,
2013-04-07 23:41:00,50.5,43.0,29.93,SE,141,2.0,5.0,75,0.00,,,0.00,weatherlink.com 1.10,2013-04-08 03:41:00,
2013-04-07 23:56:00,50.5,43.0,29.93,SSE,160,1.0,4.0,75,0.00,,,0.00,weatherlink.com 1.10,2013-04-08 03:56:00,